San Jose, California
Current Conditions -  °F | °C
As of 2:53 PM on Tuesday 25 Nov 2014 (Local Time) from KSJC Reporting Station
Scattered Clouds Scattered Clouds  
Wind Chill: 66°   Ceiling: Unl
Heat Index: 66°   Visibility: 10mi
Dew Point: 35°   Wind: 5mph
Humidity: 32%   Direction: 260°W
Pressure: 30.36"   Gusts: NA
Location:  37.35°N, 121.9°W
Report Text: KSJC 252253Z 26004KT 10SM FEW120 SCT170 19/02 A3036 RMK AO2 SLP279 T01890017
Loading
Personal Weather Stations






























Interactive Weather Map New forecast layout! Learn more

10-Day Weather Forecast

Advertisements
Track Severe Weather on mobile